GB-0029 weather

Melbury Airstrip
Melbury, England, United Kingdom

Public forecast

Using degrees Celsius for public forecast. Weather courtesy of forecast.io.

Closest aviation weather report (METAR) to Melbury Airstrip

Closest report is RNAS Yeovilton, 7.8 nm (14.5 km) N. Retrieved 2020/04/02 04:50 UTC (31 minutes ago):

EGDY 020450Z 26005KT 9999 OVC035 06/04 Q1019 BLU

Closest aviation forecast (TAF) to Melbury Airstrip

Forecast is more than 12 hours old.

Closest forecast is RNAS Yeovilton, 7.8 nm (14.5 km) N. Retrieved 2019/05/01 18:06 UTC (11 months ago):

TAF TAF EGDY 010100Z 3018/0103 CNL